sensor_id;sensor_type;location;lat;lon;timestamp;pressure;altitude;pressure_sealevel;temperature;humidity
53550;BME280;67273;52.914;-0.982;2023-05-19T00:00:42;102402.16;;;20.00;51.85
53550;BME280;67273;52.914;-0.982;2023-05-19T00:03:11;102396.94;;;19.99;51.79
53550;BME280;67273;52.914;-0.982;2023-05-19T00:05:38;102405.97;;;19.99;51.81
53550;BME280;67273;52.914;-0.982;2023-05-19T00:08:12;102405.13;;;19.99;51.87
53550;BME280;67273;52.914;-0.982;2023-05-19T00:10:41;102398.81;;;19.98;51.76
53550;BME280;67273;52.914;-0.982;2023-05-19T00:13:07;102400.69;;;19.98;51.77
53550;BME280;67273;52.914;-0.982;2023-05-19T00:15:33;102401.53;;;19.98;51.89
53550;BME280;67273;52.914;-0.982;2023-05-19T00:17:59;102401.72;;;19.97;51.78
53550;BME280;67273;52.914;-0.982;2023-05-19T00:20:25;102403.44;;;19.98;51.84
53550;BME280;67273;52.914;-0.982;2023-05-19T00:22:51;102402.59;;;19.97;51.75
53550;BME280;67273;52.914;-0.982;2023-05-19T00:25:18;102400.91;;;19.96;51.75
53550;BME280;67273;52.914;-0.982;2023-05-19T00:27:44;102405.53;;;19.96;51.80
53550;BME280;67273;52.914;-0.982;2023-05-19T00:30:10;102401.72;;;19.97;51.60
53550;BME280;67273;52.914;-0.982;2023-05-19T00:32:35;102392.91;;;19.94;51.72
53550;BME280;67273;52.914;-0.982;2023-05-19T00:35:01;102395.66;;;19.94;51.74
53550;BME280;67273;52.914;-0.982;2023-05-19T00:37:27;102399.25;;;19.95;51.88
53550;BME280;67273;52.914;-0.982;2023-05-19T00:39:53;102400.28;;;19.94;51.74
53550;BME280;67273;52.914;-0.982;2023-05-19T00:42:20;102396.72;;;19.93;51.77
53550;BME280;67273;52.914;-0.982;2023-05-19T00:44:46;102397.53;;;19.94;51.46
53550;BME280;67273;52.914;-0.982;2023-05-19T00:47:12;102396.72;;;19.93;51.58
53550;BME280;67273;52.914;-0.982;2023-05-19T00:49:38;102398.56;;;19.93;51.39
53550;BME280;67273;52.914;-0.982;2023-05-19T00:52:05;102396.72;;;19.93;51.42
53550;BME280;67273;52.914;-0.982;2023-05-19T00:54:32;102400.47;;;19.92;51.56
53550;BME280;67273;52.914;-0.982;2023-05-19T00:56:59;102397.75;;;19.92;51.65
53550;BME280;67273;52.914;-0.982;2023-05-19T00:59:26;102392.28;;;19.92;51.63
53550;BME280;67273;52.914;-0.982;2023-05-19T01:01:52;102395.03;;;19.92;51.50
53550;BME280;67273;52.914;-0.982;2023-05-19T01:04:18;102389.56;;;19.92;51.58
53550;BME280;67273;52.914;-0.982;2023-05-19T01:06:45;102387.88;;;19.91;51.50
53550;BME280;67273;52.914;-0.982;2023-05-19T01:09:11;102391.66;;;19.90;51.46
53550;BME280;67273;52.914;-0.982;2023-05-19T01:11:37;102390.81;;;19.90;51.54
53550;BME280;67273;52.914;-0.982;2023-05-19T01:14:03;102389.75;;;19.91;51.47
53550;BME280;67273;52.914;-0.982;2023-05-19T01:16:35;102391.66;;;19.90;51.56
53550;BME280;67273;52.914;-0.982;2023-05-19T01:19:29;102387.25;;;19.89;51.54
53550;BME280;67273;52.914;-0.982;2023-05-19T01:22:22;102395.41;;;19.89;51.48
53550;BME280;67273;52.914;-0.982;2023-05-19T01:25:14;102387.25;;;19.89;51.38
53550;BME280;67273;52.914;-0.982;2023-05-19T01:28:11;102393.75;;;19.88;51.49
53550;BME280;67273;52.914;-0.982;2023-05-19T01:30:43;102410.97;;;19.89;51.35
53550;BME280;67273;52.914;-0.982;2023-05-19T01:33:12;102410.13;;;19.88;51.30
53550;BME280;67273;52.914;-0.982;2023-05-19T01:35:39;102409.25;;;19.88;51.50
53550;BME280;67273;52.914;-0.982;2023-05-19T01:38:08;102412.84;;;19.88;51.30
53550;BME280;67273;52.914;-0.982;2023-05-19T01:40:35;102420.16;;;19.88;51.60
53550;BME280;67273;52.914;-0.982;2023-05-19T01:43:02;102424.78;;;19.87;51.36
53550;BME280;67273;52.914;-0.982;2023-05-19T01:45:29;102414.94;;;19.86;51.38
53550;BME280;67273;52.914;-0.982;2023-05-19T01:47:59;102418.50;;;19.87;51.36
53550;BME280;67273;52.914;-0.982;2023-05-19T01:50:26;102412.22;;;19.86;51.25
53550;BME280;67273;52.914;-0.982;2023-05-19T01:52:52;102417.69;;;19.86;51.40
53550;BME280;67273;52.914;-0.982;2023-05-19T01:55:18;102418.50;;;19.87;51.42
53550;BME280;67273;52.914;-0.982;2023-05-19T01:57:51;102411.34;;;19.86;51.33
53550;BME280;67273;52.914;-0.982;2023-05-19T02:00:28;102417.69;;;19.86;51.48
53550;BME280;67273;52.914;-0.982;2023-05-19T02:03:13;102410.53;;;19.85;51.39
53550;BME280;67273;52.914;-0.982;2023-05-19T02:05:50;102403.16;;;19.86;51.38
53550;BME280;67273;52.914;-0.982;2023-05-19T02:08:19;102396.88;;;19.85;51.36
53550;BME280;67273;52.914;-0.982;2023-05-19T02:10:51;102410.53;;;19.85;51.19
53550;BME280;67273;52.914;-0.982;2023-05-19T02:13:23;102403.38;;;19.84;51.36
53550;BME280;67273;52.914;-0.982;2023-05-19T02:15:52;102403.38;;;19.84;51.37
53550;BME280;67273;52.914;-0.982;2023-05-19T02:18:21;102398.78;;;19.85;51.21
53550;BME280;67273;52.914;-0.982;2023-05-19T02:20:50;102401.72;;;19.83;51.25
53550;BME280;67273;52.914;-0.982;2023-05-19T02:23:16;102407.16;;;19.83;51.22
53550;BME280;67273;52.914;-0.982;2023-05-19T02:25:42;102409.91;;;19.83;51.26
53550;BME280;67273;52.914;-0.982;2023-05-19T02:28:09;102407.16;;;19.83;51.27
53550;BME280;67273;52.914;-0.982;2023-05-19T02:30:37;102405.47;;;19.82;51.35
53550;BME280;67273;52.914;-0.982;2023-05-19T02:33:08;102405.47;;;19.82;51.29
53550;BME280;67273;52.914;-0.982;2023-05-19T02:35:39;102411.78;;;19.83;51.34
53550;BME280;67273;52.914;-0.982;2023-05-19T02:38:07;102411.78;;;19.83;51.27
53550;BME280;67273;52.914;-0.982;2023-05-19T02:40:35;102402.75;;;19.82;51.20
53550;BME280;67273;52.914;-0.982;2023-05-19T02:43:01;102399.19;;;19.82;51.08
53550;BME280;67273;52.914;-0.982;2023-05-19T02:45:29;102400.00;;;19.82;51.14
53550;BME280;67273;52.914;-0.982;2023-05-19T02:47:56;102399.19;;;19.82;51.22
53550;BME280;67273;52.914;-0.982;2023-05-19T02:50:23;102405.47;;;19.82;51.09
53550;BME280;67273;52.914;-0.982;2023-05-19T02:52:54;102399.38;;;19.80;51.33
53550;BME280;67273;52.914;-0.982;2023-05-19T02:55:23;102402.13;;;19.80;51.33
53550;BME280;67273;52.914;-0.982;2023-05-19T02:57:51;102398.34;;;19.81;51.17
53550;BME280;67273;52.914;-0.982;2023-05-19T03:00:20;102396.66;;;19.80;51.22
53550;BME280;67273;52.914;-0.982;2023-05-19T03:02:48;102397.50;;;19.81;51.26
53550;BME280;67273;52.914;-0.982;2023-05-19T03:05:17;102395.81;;;19.80;51.11
53550;BME280;67273;52.914;-0.982;2023-05-19T03:07:49;102394.13;;;19.79;51.22
53550;BME280;67273;52.914;-0.982;2023-05-19T03:10:17;102396.66;;;19.80;51.25
53550;BME280;67273;52.914;-0.982;2023-05-19T03:12:43;102385.94;;;19.79;51.22
53550;BME280;67273;52.914;-0.982;2023-05-19T03:15:09;102384.09;;;19.79;51.15
53550;BME280;67273;52.914;-0.982;2023-05-19T03:17:37;102395.00;;;19.79;51.26
53550;BME280;67273;52.914;-0.982;2023-05-19T03:20:04;102388.69;;;19.79;51.16
53550;BME280;67273;52.914;-0.982;2023-05-19T03:22:31;102385.13;;;19.78;51.21
53550;BME280;67273;52.914;-0.982;2023-05-19T03:24:57;102380.69;;;19.77;51.13
53550;BME280;67273;52.914;-0.982;2023-05-19T03:27:24;102398.75;;;19.78;51.27
53550;BME280;67273;52.914;-0.982;2023-05-19T03:29:50;102406.09;;;19.78;51.15
53550;BME280;67273;52.914;-0.982;2023-05-19T03:32:18;102399.78;;;19.77;51.23
53550;BME280;67273;52.914;-0.982;2023-05-19T03:34:44;102410.69;;;19.77;51.34
53550;BME280;67273;52.914;-0.982;2023-05-19T03:37:10;102403.56;;;19.76;51.19
53550;BME280;67273;52.914;-0.982;2023-05-19T03:39:38;102411.75;;;19.76;51.17
53550;BME280;67273;52.914;-0.982;2023-05-19T03:42:05;102400.84;;;19.76;51.18
53550;BME280;67273;52.914;-0.982;2023-05-19T03:44:32;102410.94;;;19.75;51.08
53550;BME280;67273;52.914;-0.982;2023-05-19T03:46:59;102412.78;;;19.75;51.19
53550;BME280;67273;52.914;-0.982;2023-05-19T03:49:43;102414.47;;;19.76;51.08
53550;BME280;67273;52.914;-0.982;2023-05-19T03:52:32;102409.22;;;19.74;51.21
53550;BME280;67273;52.914;-0.982;2023-05-19T03:55:06;102423.69;;;19.75;51.24
53550;BME280;67273;52.914;-0.982;2023-05-19T03:57:32;102420.13;;;19.74;51.12
53550;BME280;67273;52.914;-0.982;2023-05-19T03:59:59;102420.13;;;19.74;51.09
53550;BME280;67273;52.914;-0.982;2023-05-19T04:02:25;102416.59;;;19.74;51.14
53550;BME280;67273;52.914;-0.982;2023-05-19T04:04:51;102430.22;;;19.74;51.17
53550;BME280;67273;52.914;-0.982;2023-05-19T04:07:16;102423.91;;;19.73;51.21
53550;BME280;67273;52.914;-0.982;2023-05-19T04:09:42;102427.50;;;19.74;51.25
53550;BME280;67273;52.914;-0.982;2023-05-19T04:12:08;102425.75;;;19.73;51.15
53550;BME280;67273;52.914;-0.982;2023-05-19T04:14:34;102423.03;;;19.73;51.22
53550;BME280;67273;52.914;-0.982;2023-05-19T04:17:01;102424.09;;;19.72;51.12
53550;BME280;67273;52.914;-0.982;2023-05-19T04:19:26;102426.81;;;19.72;51.19
53550;BME280;67273;52.914;-0.982;2023-05-19T04:21:54;102417.78;;;19.71;51.27
53550;BME280;67273;52.914;-0.982;2023-05-19T04:24:20;102416.94;;;19.71;51.15
53550;BME280;67273;52.914;-0.982;2023-05-19T04:26:46;102412.31;;;19.71;51.04
53550;BME280;67273;52.914;-0.982;2023-05-19T04:29:13;102407.94;;;19.70;51.08
53550;BME280;67273;52.914;-0.982;2023-05-19T04:31:42;102414.22;;;19.71;50.95
53550;BME280;67273;52.914;-0.982;2023-05-19T04:34:10;102408.75;;;19.71;51.20
53550;BME280;67273;52.914;-0.982;2023-05-19T04:36:36;102407.94;;;19.70;51.14
53550;BME280;67273;52.914;-0.982;2023-05-19T04:39:02;102408.75;;;19.71;51.14
53550;BME280;67273;52.914;-0.982;2023-05-19T04:41:32;102407.06;;;19.70;51.15
53550;BME280;67273;52.914;-0.982;2023-05-19T04:43:58;102409.78;;;19.70;51.07
53550;BME280;67273;52.914;-0.982;2023-05-19T04:46:25;102405.41;;;19.69;51.02
53550;BME280;67273;52.914;-0.982;2023-05-19T04:48:53;102406.25;;;19.69;51.02
53550;BME280;67273;52.914;-0.982;2023-05-19T04:51:21;102399.75;;;19.70;51.16
53550;BME280;67273;52.914;-0.982;2023-05-19T04:53:47;102396.16;;;19.70;51.05
53550;BME280;67273;52.914;-0.982;2023-05-19T04:56:13;102385.25;;;19.70;51.07
53550;BME280;67273;52.914;-0.982;2023-05-19T04:58:40;102393.44;;;19.70;51.07
53550;BME280;67273;52.914;-0.982;2023-05-19T05:01:06;102390.72;;;19.70;51.07
53550;BME280;67273;52.914;-0.982;2023-05-19T05:03:34;102389.88;;;19.69;51.17
53550;BME280;67273;52.914;-0.982;2023-05-19T05:05:59;102403.50;;;19.69;51.05
53550;BME280;67273;52.914;-0.982;2023-05-19T05:08:27;102405.41;;;19.69;51.08
53550;BME280;67273;52.914;-0.982;2023-05-19T05:10:56;102412.53;;;19.70;51.04
53550;BME280;67273;52.914;-0.982;2023-05-19T05:13:23;102410.00;;;19.68;50.74
53550;BME280;67273;52.914;-0.982;2023-05-19T05:15:50;102411.69;;;19.69;50.98
53550;BME280;67273;52.914;-0.982;2023-05-19T05:18:19;102419.88;;;19.69;51.12
53550;BME280;67273;52.914;-0.982;2023-05-19T05:20:46;102417.97;;;19.70;51.00
53550;BME280;67273;52.914;-0.982;2023-05-19T05:23:13;102421.78;;;19.69;50.97
53550;BME280;67273;52.914;-0.982;2023-05-19T05:25:43;102421.78;;;19.69;51.05
53550;BME280;67273;52.914;-0.982;2023-05-19T05:28:10;102410.84;;;19.69;50.97
53550;BME280;67273;52.914;-0.982;2023-05-19T05:30:37;102422.59;;;19.69;50.96
53550;BME280;67273;52.914;-0.982;2023-05-19T05:33:04;102420.72;;;19.70;51.14
53550;BME280;67273;52.914;-0.982;2023-05-19T05:35:37;102420.72;;;19.70;51.03
53550;BME280;67273;52.914;-0.982;2023-05-19T05:38:04;102420.72;;;19.70;51.03
53550;BME280;67273;52.914;-0.982;2023-05-19T05:40:30;102421.56;;;19.70;51.01
53550;BME280;67273;52.914;-0.982;2023-05-19T05:42:57;102421.56;;;19.70;50.92
53550;BME280;67273;52.914;-0.982;2023-05-19T05:45:25;102418.84;;;19.70;50.93
53550;BME280;67273;52.914;-0.982;2023-05-19T05:47:53;102428.88;;;19.70;50.95
53550;BME280;67273;52.914;-0.982;2023-05-19T05:50:19;102425.13;;;19.71;50.78
53550;BME280;67273;52.914;-0.982;2023-05-19T05:52:46;102428.88;;;19.70;50.92
53550;BME280;67273;52.914;-0.982;2023-05-19T05:55:13;102428.88;;;19.70;50.97
53550;BME280;67273;52.914;-0.982;2023-05-19T05:57:39;102430.59;;;19.71;50.95
53550;BME280;67273;52.914;-0.982;2023-05-19T06:00:10;102442.53;;;19.70;50.83
53550;BME280;67273;52.914;-0.982;2023-05-19T06:02:50;102438.97;;;19.69;50.96
53550;BME280;67273;52.914;-0.982;2023-05-19T06:05:17;102441.50;;;19.71;50.79
53550;BME280;67273;52.914;-0.982;2023-05-19T06:07:44;102442.72;;;19.68;50.98
53550;BME280;67273;52.914;-0.982;2023-05-19T06:10:14;102441.69;;;19.69;50.91
53550;BME280;67273;52.914;-0.982;2023-05-19T06:12:41;102443.59;;;19.69;50.99
53550;BME280;67273;52.914;-0.982;2023-05-19T06:15:09;102438.97;;;19.69;50.90
53550;BME280;67273;52.914;-0.982;2023-05-19T06:17:48;102438.97;;;19.69;50.97
53550;BME280;67273;52.914;-0.982;2023-05-19T06:20:14;102436.22;;;19.69;50.96
53550;BME280;67273;52.914;-0.982;2023-05-19T06:22:40;102439.78;;;19.70;50.80
53550;BME280;67273;52.914;-0.982;2023-05-19T06:25:09;102438.97;;;19.69;50.85
53550;BME280;67273;52.914;-0.982;2023-05-19T06:27:37;102439.78;;;19.70;50.73
53550;BME280;67273;52.914;-0.982;2023-05-19T06:30:06;102442.53;;;19.70;50.78
53550;BME280;67273;52.914;-0.982;2023-05-19T06:32:40;102445.25;;;19.70;50.81
53550;BME280;67273;52.914;-0.982;2023-05-19T06:35:07;102449.88;;;19.69;50.73
53550;BME280;67273;52.914;-0.982;2023-05-19T06:37:34;102447.97;;;19.70;50.67
53550;BME280;67273;52.914;-0.982;2023-05-19T06:40:03;102452.41;;;19.71;50.90
53550;BME280;67273;52.914;-0.982;2023-05-19T06:42:32;102452.41;;;19.71;50.84
53550;BME280;67273;52.914;-0.982;2023-05-19T06:45:28;102463.31;;;19.71;50.80
53550;BME280;67273;52.914;-0.982;2023-05-19T06:47:59;102455.13;;;19.71;50.86
53550;BME280;67273;52.914;-0.982;2023-05-19T06:50:26;102466.03;;;19.71;50.77
53550;BME280;67273;52.914;-0.982;2023-05-19T06:52:53;102466.03;;;19.71;50.80
53550;BME280;67273;52.914;-0.982;2023-05-19T06:55:19;102463.31;;;19.71;50.79
53550;BME280;67273;52.914;-0.982;2023-05-19T06:57:47;102456.44;;;19.75;51.27
53550;BME280;67273;52.914;-0.982;2023-05-19T07:00:14;102458.75;;;19.78;51.42
53550;BME280;67273;52.914;-0.982;2023-05-19T07:02:44;102458.34;;;19.81;51.31
53550;BME280;67273;52.914;-0.982;2023-05-19T07:05:12;102462.75;;;19.82;52.52
53550;BME280;67273;52.914;-0.982;2023-05-19T07:07:38;102461.28;;;19.80;52.57
53550;BME280;67273;52.914;-0.982;2023-05-19T07:10:08;102461.47;;;19.78;53.19
53550;BME280;67273;52.914;-0.982;2023-05-19T07:12:35;102460.44;;;19.79;53.29
53550;BME280;67273;52.914;-0.982;2023-05-19T07:15:03;102451.41;;;19.79;53.10
53550;BME280;67273;52.914;-0.982;2023-05-19T07:17:31;102462.13;;;19.80;53.46
53550;BME280;67273;52.914;-0.982;2023-05-19T07:19:57;102455.81;;;19.80;53.42
53550;BME280;67273;52.914;-0.982;2023-05-19T07:22:24;102455.63;;;19.81;53.87
53550;BME280;67273;52.914;-0.982;2023-05-19T07:24:53;102456.25;;;19.83;54.49
53550;BME280;67273;52.914;-0.982;2023-05-19T07:27:22;102459.81;;;19.84;54.48
53550;BME280;67273;52.914;-0.982;2023-05-19T07:29:49;102456.91;;;19.85;54.78
53550;BME280;67273;52.914;-0.982;2023-05-19T07:32:16;102461.53;;;19.85;54.69
53550;BME280;67273;52.914;-0.982;2023-05-19T07:34:42;102461.31;;;19.86;54.44
53550;BME280;67273;52.914;-0.982;2023-05-19T07:37:07;102465.94;;;19.92;55.38
53550;BME280;67273;52.914;-0.982;2023-05-19T07:39:35;102461.75;;;19.97;56.15
53550;BME280;67273;52.914;-0.982;2023-05-19T07:42:03;102464.28;;;19.98;56.69
53550;BME280;67273;52.914;-0.982;2023-05-19T07:44:30;102459.69;;;19.99;56.50
53550;BME280;67273;52.914;-0.982;2023-05-19T07:46:56;102464.09;;;20.00;56.42
53550;BME280;67273;52.914;-0.982;2023-05-19T07:49:22;102459.25;;;20.02;56.29
53550;BME280;67273;52.914;-0.982;2023-05-19T07:51:48;102464.94;;;20.07;56.22
53550;BME280;67273;52.914;-0.982;2023-05-19T07:54:15;102470.41;;;20.07;55.77
53550;BME280;67273;52.914;-0.982;2023-05-19T07:56:44;102466.44;;;20.09;55.55
53550;BME280;67273;52.914;-0.982;2023-05-19T07:59:10;102466.63;;;20.14;55.01
53550;BME280;67273;52.914;-0.982;2023-05-19T08:01:38;102469.59;;;20.13;54.86
53550;BME280;67273;52.914;-0.982;2023-05-19T08:04:06;102472.97;;;20.15;55.17
53550;BME280;67273;52.914;-0.982;2023-05-19T08:06:35;102467.31;;;20.17;55.08
53550;BME280;67273;52.914;-0.982;2023-05-19T08:09:01;102466.03;;;20.19;55.10
53550;BME280;67273;52.914;-0.982;2023-05-19T08:11:28;102463.53;;;20.24;54.90
53550;BME280;67273;52.914;-0.982;2023-05-19T08:13:55;102475.72;;;20.28;54.99
53550;BME280;67273;52.914;-0.982;2023-05-19T08:16:21;102470.69;;;20.32;54.79
53550;BME280;67273;52.914;-0.982;2023-05-19T08:18:47;102470.06;;;20.37;54.86
53550;BME280;67273;52.914;-0.982;2023-05-19T08:21:14;102476.16;;;20.39;54.80
53550;BME280;67273;52.914;-0.982;2023-05-19T08:23:42;102472.41;;;20.40;54.62
53550;BME280;67273;52.914;-0.982;2023-05-19T08:26:10;102468.38;;;20.36;55.01
53550;BME280;67273;52.914;-0.982;2023-05-19T08:28:41;102468.59;;;20.41;54.74
53550;BME280;67273;52.914;-0.982;2023-05-19T08:31:10;102466.72;;;20.41;54.56
53550;BME280;67273;52.914;-0.982;2023-05-19T08:33:36;102463.13;;;20.41;54.73
53550;BME280;67273;52.914;-0.982;2023-05-19T08:36:03;102470.28;;;20.42;54.91
53550;BME280;67273;52.914;-0.982;2023-05-19T08:38:29;102459.38;;;20.42;55.02
53550;BME280;67273;52.914;-0.982;2023-05-19T08:40:56;102458.09;;;20.44;55.02
53550;BME280;67273;52.914;-0.982;2023-05-19T08:43:24;102461.47;;;20.46;55.04
53550;BME280;67273;52.914;-0.982;2023-05-19T08:45:52;102454.75;;;20.49;55.02
53550;BME280;67273;52.914;-0.982;2023-05-19T08:48:20;102449.94;;;20.51;55.21
53550;BME280;67273;52.914;-0.982;2023-05-19T08:50:53;102447.81;;;20.53;54.87
53550;BME280;67273;52.914;-0.982;2023-05-19T08:53:26;102449.53;;;20.54;54.95
53550;BME280;67273;52.914;-0.982;2023-05-19T08:56:01;102453.91;;;20.55;54.94
53550;BME280;67273;52.914;-0.982;2023-05-19T08:58:37;102449.06;;;20.57;54.78
53550;BME280;67273;52.914;-0.982;2023-05-19T09:01:06;102447.00;;;20.59;54.97
53550;BME280;67273;52.914;-0.982;2023-05-19T09:03:34;102445.09;;;20.60;54.84
53550;BME280;67273;52.914;-0.982;2023-05-19T09:06:06;102447.66;;;20.61;54.70
53550;BME280;67273;52.914;-0.982;2023-05-19T09:08:39;102451.03;;;20.63;54.77
53550;BME280;67273;52.914;-0.982;2023-05-19T09:11:08;102448.91;;;20.65;54.73
53550;BME280;67273;52.914;-0.982;2023-05-19T09:13:37;102457.94;;;20.66;54.57
53550;BME280;67273;52.914;-0.982;2023-05-19T09:16:04;102453.34;;;20.66;54.55
53550;BME280;67273;52.914;-0.982;2023-05-19T09:18:30;102443.03;;;20.68;54.49
53550;BME280;67273;52.914;-0.982;2023-05-19T09:20:59;102444.72;;;20.69;54.55
53550;BME280;67273;52.914;-0.982;2023-05-19T09:23:26;102446.41;;;20.70;54.28
53550;BME280;67273;52.914;-0.982;2023-05-19T09:25:53;102443.66;;;20.70;54.41
53550;BME280;67273;52.914;-0.982;2023-05-19T09:28:23;102446.19;;;20.72;54.27
53550;BME280;67273;52.914;-0.982;2023-05-19T09:30:57;102424.16;;;20.74;54.03
53550;BME280;67273;52.914;-0.982;2023-05-19T09:33:23;102431.28;;;20.75;54.16
53550;BME280;67273;52.914;-0.982;2023-05-19T09:35:49;102429.16;;;20.77;54.13
53550;BME280;67273;52.914;-0.982;2023-05-19T09:38:17;102429.81;;;20.79;54.29
53550;BME280;67273;52.914;-0.982;2023-05-19T09:40:43;102443.03;;;20.82;54.31
53550;BME280;67273;52.914;-0.982;2023-05-19T09:43:09;102440.31;;;20.82;54.40
53550;BME280;67273;52.914;-0.982;2023-05-19T09:45:36;102442.81;;;20.83;54.14
53550;BME280;67273;52.914;-0.982;2023-05-19T09:48:02;102447.25;;;20.84;54.05
53550;BME280;67273;52.914;-0.982;2023-05-19T09:50:32;102448.91;;;20.85;53.97
53550;BME280;67273;52.914;-0.982;2023-05-19T09:52:58;102445.97;;;20.87;54.14
53550;BME280;67273;52.914;-0.982;2023-05-19T09:55:27;102450.41;;;20.88;53.83
53550;BME280;67273;52.914;-0.982;2023-05-19T09:57:54;102457.53;;;20.76;53.75
53550;BME280;67273;52.914;-0.982;2023-05-19T10:00:21;102451.03;;;20.63;54.45
53550;BME280;67273;52.914;-0.982;2023-05-19T10:02:48;102461.31;;;20.61;54.66
53550;BME280;67273;52.914;-0.982;2023-05-19T10:05:15;102451.41;;;20.60;55.07
53550;BME280;67273;52.914;-0.982;2023-05-19T10:07:43;102451.81;;;20.57;56.19
53550;BME280;67273;52.914;-0.982;2023-05-19T10:10:20;102452.88;;;20.56;56.48
53550;BME280;67273;52.914;-0.982;2023-05-19T10:12:47;102452.88;;;20.56;55.80
53550;BME280;67273;52.914;-0.982;2023-05-19T10:15:14;102454.78;;;20.56;56.58
53550;BME280;67273;52.914;-0.982;2023-05-19T10:17:41;102453.91;;;20.55;57.32
53550;BME280;67273;52.914;-0.982;2023-05-19T10:20:08;102456.88;;;20.60;57.94
53550;BME280;67273;52.914;-0.982;2023-05-19T10:22:35;102460.25;;;20.62;57.26
53550;BME280;67273;52.914;-0.982;2023-05-19T10:25:01;102464.03;;;20.75;57.61
53550;BME280;67273;52.914;-0.982;2023-05-19T10:27:28;102459.84;;;20.92;57.26
53550;BME280;67273;52.914;-0.982;2023-05-19T10:29:58;102459.03;;;20.98;57.13
53550;BME280;67273;52.914;-0.982;2023-05-19T10:32:29;102460.88;;;21.04;56.91
53550;BME280;67273;52.914;-0.982;2023-05-19T10:37:52;102449.97;;;21.11;56.44
53550;BME280;67273;52.914;-0.982;2023-05-19T10:40:26;102452.03;;;21.16;56.17
53550;BME280;67273;52.914;-0.982;2023-05-19T10:43:01;102453.31;;;21.20;56.17
53550;BME280;67273;52.914;-0.982;2023-05-19T10:45:34;102453.53;;;21.25;55.89
53550;BME280;67273;52.914;-0.982;2023-05-19T10:48:01;102453.31;;;21.26;55.84
53550;BME280;67273;52.914;-0.982;2023-05-19T10:50:34;102451.19;;;21.29;55.81
53550;BME280;67273;52.914;-0.982;2023-05-19T10:53:02;102453.72;;;21.30;55.76
53550;BME280;67273;52.914;-0.982;2023-05-19T10:55:46;102454.34;;;21.32;55.72
53550;BME280;67273;52.914;-0.982;2023-05-19T10:58:14;102448.88;;;21.32;55.55
53550;BME280;67273;52.914;-0.982;2023-05-19T11:00:41;102454.75;;;21.36;55.48
53550;BME280;67273;52.914;-0.982;2023-05-19T11:03:11;102451.81;;;21.37;55.33
53550;BME280;67273;52.914;-0.982;2023-05-19T11:05:38;102447.59;;;21.41;55.24
53550;BME280;67273;52.914;-0.982;2023-05-19T11:08:05;102441.91;;;21.43;55.17
53550;BME280;67273;52.914;-0.982;2023-05-19T11:10:32;102436.88;;;21.47;54.91
53550;BME280;67273;52.914;-0.982;2023-05-19T11:12:58;102444.22;;;21.46;54.98
53550;BME280;67273;52.914;-0.982;2023-05-19T11:15:26;102444.66;;;21.50;54.68
53550;BME280;67273;52.914;-0.982;2023-05-19T11:17:53;102455.59;;;21.50;54.72
53550;BME280;67273;52.914;-0.982;2023-05-19T11:20:21;102452.63;;;21.44;54.82
53550;BME280;67273;52.914;-0.982;2023-05-19T11:23:02;102451.38;;;21.40;54.82
53550;BME280;67273;52.914;-0.982;2023-05-19T11:25:40;102451.81;;;21.37;54.58
53550;BME280;67273;52.914;-0.982;2023-05-19T11:28:06;102444.66;;;21.36;54.63
53550;BME280;67273;52.914;-0.982;2023-05-19T11:30:33;102451.81;;;21.37;54.28
53550;BME280;67273;52.914;-0.982;2023-05-19T11:33:00;102449.06;;;21.37;54.32
53550;BME280;67273;52.914;-0.982;2023-05-19T11:35:26;102452.66;;;21.38;54.03
53550;BME280;67273;52.914;-0.982;2023-05-19T11:37:53;102444.66;;;21.36;54.09
53550;BME280;67273;52.914;-0.982;2023-05-19T11:40:20;102449.06;;;21.37;54.02
53550;BME280;67273;52.914;-0.982;2023-05-19T11:42:45;102443.81;;;21.36;53.83
53550;BME280;67273;52.914;-0.982;2023-05-19T11:45:11;102448.44;;;21.35;53.80
53550;BME280;67273;52.914;-0.982;2023-05-19T11:47:37;102448.44;;;21.35;53.78
53550;BME280;67273;52.914;-0.982;2023-05-19T11:50:05;102449.50;;;21.34;53.90
53550;BME280;67273;52.914;-0.982;2023-05-19T11:52:31;102447.81;;;21.33;53.58
53550;BME280;67273;52.914;-0.982;2023-05-19T11:54:58;102455.19;;;21.33;53.57
53550;BME280;67273;52.914;-0.982;2023-05-19T11:57:25;102448.00;;;21.32;53.52
53550;BME280;67273;52.914;-0.982;2023-05-19T11:59:51;102451.00;;;21.30;53.30
53550;BME280;67273;52.914;-0.982;2023-05-19T12:02:19;102457.28;;;21.31;53.33
53550;BME280;67273;52.914;-0.982;2023-05-19T12:04:45;102455.81;;;21.28;53.44
53550;BME280;67273;52.914;-0.982;2023-05-19T12:07:13;102454.75;;;21.29;53.45
53550;BME280;67273;52.914;-0.982;2023-05-19T12:09:42;102456.66;;;21.29;53.37
53550;BME280;67273;52.914;-0.982;2023-05-19T12:12:07;102456.88;;;21.27;53.36
53550;BME280;67273;52.914;-0.982;2023-05-19T12:14:34;102446.75;;;21.34;52.79
53550;BME280;67273;52.914;-0.982;2023-05-19T12:17:09;102452.03;;;21.36;53.39
53550;BME280;67273;52.914;-0.982;2023-05-19T12:19:34;102452.66;;;21.38;53.35
53550;BME280;67273;52.914;-0.982;2023-05-19T12:22:00;102446.75;;;21.41;53.52
53550;BME280;67273;52.914;-0.982;2023-05-19T12:24:28;102446.50;;;21.42;53.22
53550;BME280;67273;52.914;-0.982;2023-05-19T12:27:04;102452.22;;;21.48;53.30
53550;BME280;67273;52.914;-0.982;2023-05-19T12:29:30;102448.44;;;21.49;53.34
53550;BME280;67273;52.914;-0.982;2023-05-19T12:31:56;102449.06;;;21.51;53.30
53550;BME280;67273;52.914;-0.982;2023-05-19T12:34:22;102444.41;;;21.51;53.24
53550;BME280;67273;52.914;-0.982;2023-05-19T12:36:48;102444.22;;;21.53;53.34
53550;BME280;67273;52.914;-0.982;2023-05-19T12:39:14;102446.13;;;21.52;53.58
53550;BME280;67273;52.914;-0.982;2023-05-19T12:41:43;102446.31;;;21.51;53.38
53550;BME280;67273;52.914;-0.982;2023-05-19T12:44:14;102440.69;;;21.32;53.88
53550;BME280;67273;52.914;-0.982;2023-05-19T12:46:39;102448.84;;;21.45;53.90
53550;BME280;67273;52.914;-0.982;2023-05-19T12:49:05;102438.13;;;21.51;53.74